sensor_id;sensor_type;location;lat;lon;timestamp;P1;durP1;ratioP1;P2;durP2;ratioP2
7045;SDS011;3564;53.326;10.356;2022-10-31T00:00:50;9.10;;;5.87;;
7045;SDS011;3564;53.326;10.356;2022-10-31T00:03:16;9.93;;;6.13;;
7045;SDS011;3564;53.326;10.356;2022-10-31T00:05:43;8.57;;;6.10;;
7045;SDS011;3564;53.326;10.356;2022-10-31T00:08:10;7.73;;;6.57;;
7045;SDS011;3564;53.326;10.356;2022-10-31T00:10:39;9.67;;;6.40;;
7045;SDS011;3564;53.326;10.356;2022-10-31T00:13:07;8.67;;;6.60;;
7045;SDS011;3564;53.326;10.356;2022-10-31T00:15:34;8.50;;;5.90;;
7045;SDS011;3564;53.326;10.356;2022-10-31T00:18:00;7.00;;;6.20;;
7045;SDS011;3564;53.326;10.356;2022-10-31T00:20:26;8.83;;;6.30;;
7045;SDS011;3564;53.326;10.356;2022-10-31T00:22:52;7.57;;;6.27;;
7045;SDS011;3564;53.326;10.356;2022-10-31T00:25:17;9.03;;;5.60;;
7045;SDS011;3564;53.326;10.356;2022-10-31T00:27:43;9.93;;;5.80;;
7045;SDS011;3564;53.326;10.356;2022-10-31T00:30:08;9.87;;;7.10;;
7045;SDS011;3564;53.326;10.356;2022-10-31T00:32:34;11.43;;;6.27;;
7045;SDS011;3564;53.326;10.356;2022-10-31T00:35:00;7.07;;;6.37;;
7045;SDS011;3564;53.326;10.356;2022-10-31T00:37:26;11.60;;;6.33;;
7045;SDS011;3564;53.326;10.356;2022-10-31T00:39:52;6.97;;;6.27;;
7045;SDS011;3564;53.326;10.356;2022-10-31T00:42:17;13.57;;;6.43;;
7045;SDS011;3564;53.326;10.356;2022-10-31T00:44:43;10.73;;;6.07;;
7045;SDS011;3564;53.326;10.356;2022-10-31T00:47:08;7.93;;;6.00;;
7045;SDS011;3564;53.326;10.356;2022-10-31T00:49:34;9.10;;;6.07;;
7045;SDS011;3564;53.326;10.356;2022-10-31T00:51:59;7.63;;;5.67;;
7045;SDS011;3564;53.326;10.356;2022-10-31T00:54:25;11.53;;;6.60;;
7045;SDS011;3564;53.326;10.356;2022-10-31T00:56:50;11.87;;;6.30;;
7045;SDS011;3564;53.326;10.356;2022-10-31T00:59:16;8.23;;;6.40;;
7045;SDS011;3564;53.326;10.356;2022-10-31T01:01:41;8.40;;;5.73;;
7045;SDS011;3564;53.326;10.356;2022-10-31T01:04:07;10.60;;;6.33;;
7045;SDS011;3564;53.326;10.356;2022-10-31T01:06:32;10.27;;;6.67;;
7045;SDS011;3564;53.326;10.356;2022-10-31T01:08:58;9.93;;;7.13;;
7045;SDS011;3564;53.326;10.356;2022-10-31T01:11:24;16.10;;;10.73;;
7045;SDS011;3564;53.326;10.356;2022-10-31T01:13:50;13.50;;;9.17;;
7045;SDS011;3564;53.326;10.356;2022-10-31T01:16:18;11.93;;;8.40;;
7045;SDS011;3564;53.326;10.356;2022-10-31T01:18:45;13.07;;;8.10;;
7045;SDS011;3564;53.326;10.356;2022-10-31T01:21:12;13.67;;;7.77;;
7045;SDS011;3564;53.326;10.356;2022-10-31T01:23:40;10.67;;;7.80;;
7045;SDS011;3564;53.326;10.356;2022-10-31T01:26:16;13.07;;;9.33;;
7045;SDS011;3564;53.326;10.356;2022-10-31T01:28:53;12.93;;;7.13;;
7045;SDS011;3564;53.326;10.356;2022-10-31T01:31:24;12.87;;;7.60;;
7045;SDS011;3564;53.326;10.356;2022-10-31T01:33:54;9.70;;;7.53;;
7045;SDS011;3564;53.326;10.356;2022-10-31T01:38:48;14.10;;;7.10;;
7045;SDS011;3564;53.326;10.356;2022-10-31T01:41:20;13.13;;;7.03;;
7045;SDS011;3564;53.326;10.356;2022-10-31T01:46:40;9.03;;;7.07;;
7045;SDS011;3564;53.326;10.356;2022-10-31T01:51:54;9.77;;;6.67;;
7045;SDS011;3564;53.326;10.356;2022-10-31T01:54:34;10.07;;;7.47;;
7045;SDS011;3564;53.326;10.356;2022-10-31T01:57:03;9.13;;;6.80;;
7045;SDS011;3564;53.326;10.356;2022-10-31T01:59:33;8.57;;;6.27;;
7045;SDS011;3564;53.326;10.356;2022-10-31T02:02:04;13.80;;;6.87;;
7045;SDS011;3564;53.326;10.356;2022-10-31T02:04:30;13.67;;;7.67;;
7045;SDS011;3564;53.326;10.356;2022-10-31T02:06:59;12.90;;;9.07;;
7045;SDS011;3564;53.326;10.356;2022-10-31T02:09:29;16.50;;;10.30;;
7045;SDS011;3564;53.326;10.356;2022-10-31T02:11:57;16.10;;;10.43;;
7045;SDS011;3564;53.326;10.356;2022-10-31T02:14:24;12.23;;;10.37;;
7045;SDS011;3564;53.326;10.356;2022-10-31T02:16:52;19.60;;;11.30;;
7045;SDS011;3564;53.326;10.356;2022-10-31T02:19:26;19.93;;;11.73;;
7045;SDS011;3564;53.326;10.356;2022-10-31T02:33:53;22.43;;;14.33;;
7045;SDS011;3564;53.326;10.356;2022-10-31T02:46:43;24.27;;;16.20;;
7045;SDS011;3564;53.326;10.356;2022-10-31T02:49:31;23.87;;;16.03;;
7045;SDS011;3564;53.326;10.356;2022-10-31T02:52:16;31.87;;;18.17;;
7045;SDS011;3564;53.326;10.356;2022-10-31T02:54:46;29.83;;;18.00;;
7045;SDS011;3564;53.326;10.356;2022-10-31T02:57:13;28.17;;;17.30;;
7045;SDS011;3564;53.326;10.356;2022-10-31T02:59:44;28.20;;;18.97;;
7045;SDS011;3564;53.326;10.356;2022-10-31T03:13:05;35.20;;;20.10;;
7045;SDS011;3564;53.326;10.356;2022-10-31T03:15:45;33.07;;;20.03;;
7045;SDS011;3564;53.326;10.356;2022-10-31T03:18:21;33.57;;;21.00;;
7045;SDS011;3564;53.326;10.356;2022-10-31T03:21:12;31.97;;;20.17;;
7045;SDS011;3564;53.326;10.356;2022-10-31T03:23:40;33.90;;;20.70;;
7045;SDS011;3564;53.326;10.356;2022-10-31T03:26:08;36.93;;;20.83;;
7045;SDS011;3564;53.326;10.356;2022-10-31T03:28:38;34.90;;;20.90;;
7045;SDS011;3564;53.326;10.356;2022-10-31T03:31:11;32.90;;;20.93;;
7045;SDS011;3564;53.326;10.356;2022-10-31T03:33:41;33.40;;;20.73;;
7045;SDS011;3564;53.326;10.356;2022-10-31T03:36:08;36.00;;;21.13;;
7045;SDS011;3564;53.326;10.356;2022-10-31T03:38:37;35.73;;;21.37;;
7045;SDS011;3564;53.326;10.356;2022-10-31T03:41:06;35.90;;;21.77;;
7045;SDS011;3564;53.326;10.356;2022-10-31T03:43:36;37.93;;;21.37;;
7045;SDS011;3564;53.326;10.356;2022-10-31T03:46:06;34.83;;;22.17;;
7045;SDS011;3564;53.326;10.356;2022-10-31T03:48:32;33.87;;;21.37;;
7045;SDS011;3564;53.326;10.356;2022-10-31T03:51:05;34.83;;;20.73;;
7045;SDS011;3564;53.326;10.356;2022-10-31T03:53:41;32.07;;;20.43;;
7045;SDS011;3564;53.326;10.356;2022-10-31T03:59:07;33.73;;;22.27;;
7045;SDS011;3564;53.326;10.356;2022-10-31T04:01:38;37.43;;;22.70;;
7045;SDS011;3564;53.326;10.356;2022-10-31T04:04:08;36.43;;;21.63;;
7045;SDS011;3564;53.326;10.356;2022-10-31T04:06:34;38.77;;;21.93;;
7045;SDS011;3564;53.326;10.356;2022-10-31T04:09:04;41.43;;;21.93;;
7045;SDS011;3564;53.326;10.356;2022-10-31T04:11:33;36.43;;;21.37;;
7045;SDS011;3564;53.326;10.356;2022-10-31T04:14:01;37.93;;;21.40;;
7045;SDS011;3564;53.326;10.356;2022-10-31T04:16:28;36.83;;;21.87;;
7045;SDS011;3564;53.326;10.356;2022-10-31T04:18:53;33.63;;;20.43;;
7045;SDS011;3564;53.326;10.356;2022-10-31T04:21:19;33.17;;;21.30;;
7045;SDS011;3564;53.326;10.356;2022-10-31T04:23:53;31.67;;;19.77;;
7045;SDS011;3564;53.326;10.356;2022-10-31T04:26:19;35.27;;;22.77;;
7045;SDS011;3564;53.326;10.356;2022-10-31T04:28:44;33.80;;;21.60;;
7045;SDS011;3564;53.326;10.356;2022-10-31T04:31:13;37.40;;;21.67;;
7045;SDS011;3564;53.326;10.356;2022-10-31T04:33:39;30.37;;;20.83;;
7045;SDS011;3564;53.326;10.356;2022-10-31T04:36:04;32.13;;;21.47;;
7045;SDS011;3564;53.326;10.356;2022-10-31T04:38:30;31.63;;;21.43;;
7045;SDS011;3564;53.326;10.356;2022-10-31T04:40:55;35.60;;;22.10;;
7045;SDS011;3564;53.326;10.356;2022-10-31T04:43:21;32.50;;;21.10;;
7045;SDS011;3564;53.326;10.356;2022-10-31T04:45:47;34.67;;;21.40;;
7045;SDS011;3564;53.326;10.356;2022-10-31T04:48:13;38.60;;;20.93;;
7045;SDS011;3564;53.326;10.356;2022-10-31T04:50:38;34.03;;;21.70;;
7045;SDS011;3564;53.326;10.356;2022-10-31T04:53:04;37.33;;;21.70;;
7045;SDS011;3564;53.326;10.356;2022-10-31T04:55:29;32.90;;;22.70;;
7045;SDS011;3564;53.326;10.356;2022-10-31T04:57:55;34.87;;;22.93;;
7045;SDS011;3564;53.326;10.356;2022-10-31T05:00:21;32.60;;;20.87;;
7045;SDS011;3564;53.326;10.356;2022-10-31T05:02:47;39.00;;;23.07;;
7045;SDS011;3564;53.326;10.356;2022-10-31T05:05:18;32.40;;;21.47;;
7045;SDS011;3564;53.326;10.356;2022-10-31T05:07:46;35.03;;;21.97;;
7045;SDS011;3564;53.326;10.356;2022-10-31T05:10:13;37.50;;;21.97;;
7045;SDS011;3564;53.326;10.356;2022-10-31T05:15:14;38.43;;;23.23;;
7045;SDS011;3564;53.326;10.356;2022-10-31T05:17:39;37.03;;;23.07;;
7045;SDS011;3564;53.326;10.356;2022-10-31T05:20:05;38.93;;;22.13;;
7045;SDS011;3564;53.326;10.356;2022-10-31T05:22:31;34.93;;;22.00;;
7045;SDS011;3564;53.326;10.356;2022-10-31T05:24:58;36.20;;;22.70;;
7045;SDS011;3564;53.326;10.356;2022-10-31T05:27:25;38.07;;;24.17;;
7045;SDS011;3564;53.326;10.356;2022-10-31T05:29:50;43.77;;;25.30;;
7045;SDS011;3564;53.326;10.356;2022-10-31T05:32:16;42.23;;;25.10;;
7045;SDS011;3564;53.326;10.356;2022-10-31T05:34:43;44.53;;;25.87;;
7045;SDS011;3564;53.326;10.356;2022-10-31T05:37:08;45.50;;;25.17;;
7045;SDS011;3564;53.326;10.356;2022-10-31T05:39:35;42.97;;;25.53;;
7045;SDS011;3564;53.326;10.356;2022-10-31T05:42:01;34.93;;;22.73;;
7045;SDS011;3564;53.326;10.356;2022-10-31T05:44:26;41.07;;;24.97;;
7045;SDS011;3564;53.326;10.356;2022-10-31T05:46:52;36.00;;;23.40;;
7045;SDS011;3564;53.326;10.356;2022-10-31T05:49:18;44.57;;;25.03;;
7045;SDS011;3564;53.326;10.356;2022-10-31T05:51:43;41.90;;;24.60;;
7045;SDS011;3564;53.326;10.356;2022-10-31T05:54:09;37.53;;;23.30;;
7045;SDS011;3564;53.326;10.356;2022-10-31T05:56:34;41.77;;;24.67;;
7045;SDS011;3564;53.326;10.356;2022-10-31T05:59:00;37.63;;;23.47;;
7045;SDS011;3564;53.326;10.356;2022-10-31T06:01:25;38.57;;;24.47;;
7045;SDS011;3564;53.326;10.356;2022-10-31T06:03:52;35.17;;;20.53;;
7045;SDS011;3564;53.326;10.356;2022-10-31T06:06:17;34.40;;;21.70;;
7045;SDS011;3564;53.326;10.356;2022-10-31T06:08:43;36.20;;;22.27;;
7045;SDS011;3564;53.326;10.356;2022-10-31T06:11:08;32.50;;;20.53;;
7045;SDS011;3564;53.326;10.356;2022-10-31T06:13:35;33.80;;;20.90;;
7045;SDS011;3564;53.326;10.356;2022-10-31T06:16:01;31.90;;;21.47;;
7045;SDS011;3564;53.326;10.356;2022-10-31T06:18:26;32.37;;;20.90;;
7045;SDS011;3564;53.326;10.356;2022-10-31T06:20:52;37.83;;;22.47;;
7045;SDS011;3564;53.326;10.356;2022-10-31T06:23:17;35.07;;;22.40;;
7045;SDS011;3564;53.326;10.356;2022-10-31T06:25:43;36.63;;;22.10;;
7045;SDS011;3564;53.326;10.356;2022-10-31T06:28:13;32.47;;;20.23;;
7045;SDS011;3564;53.326;10.356;2022-10-31T06:30:39;33.97;;;22.23;;
7045;SDS011;3564;53.326;10.356;2022-10-31T06:33:06;34.37;;;21.60;;
7045;SDS011;3564;53.326;10.356;2022-10-31T06:35:32;37.10;;;23.20;;
7045;SDS011;3564;53.326;10.356;2022-10-31T06:37:58;30.73;;;21.80;;
7045;SDS011;3564;53.326;10.356;2022-10-31T06:40:23;34.60;;;22.23;;
7045;SDS011;3564;53.326;10.356;2022-10-31T06:42:55;32.30;;;20.33;;
7045;SDS011;3564;53.326;10.356;2022-10-31T06:45:24;30.40;;;20.30;;
7045;SDS011;3564;53.326;10.356;2022-10-31T06:47:51;30.20;;;20.30;;
7045;SDS011;3564;53.326;10.356;2022-10-31T06:50:18;30.97;;;20.73;;
7045;SDS011;3564;53.326;10.356;2022-10-31T06:52:49;28.97;;;18.83;;
7045;SDS011;3564;53.326;10.356;2022-10-31T06:55:16;28.47;;;19.67;;
7045;SDS011;3564;53.326;10.356;2022-10-31T06:57:42;30.17;;;20.23;;
7045;SDS011;3564;53.326;10.356;2022-10-31T07:00:13;29.10;;;20.30;;
7045;SDS011;3564;53.326;10.356;2022-10-31T07:02:39;30.53;;;20.23;;
7045;SDS011;3564;53.326;10.356;2022-10-31T07:05:05;32.67;;;20.63;;
7045;SDS011;3564;53.326;10.356;2022-10-31T07:07:30;28.87;;;19.47;;
7045;SDS011;3564;53.326;10.356;2022-10-31T07:09:56;27.60;;;19.03;;
7045;SDS011;3564;53.326;10.356;2022-10-31T07:12:21;31.03;;;18.80;;
7045;SDS011;3564;53.326;10.356;2022-10-31T07:14:47;30.23;;;19.40;;
7045;SDS011;3564;53.326;10.356;2022-10-31T07:17:14;29.07;;;18.27;;
7045;SDS011;3564;53.326;10.356;2022-10-31T07:19:40;27.43;;;17.17;;
7045;SDS011;3564;53.326;10.356;2022-10-31T07:22:06;28.43;;;18.10;;
7045;SDS011;3564;53.326;10.356;2022-10-31T07:24:31;29.60;;;17.80;;
7045;SDS011;3564;53.326;10.356;2022-10-31T07:26:57;25.20;;;17.50;;
7045;SDS011;3564;53.326;10.356;2022-10-31T07:29:22;28.30;;;17.73;;
7045;SDS011;3564;53.326;10.356;2022-10-31T07:31:48;26.47;;;18.23;;
7045;SDS011;3564;53.326;10.356;2022-10-31T07:34:13;32.23;;;18.33;;
7045;SDS011;3564;53.326;10.356;2022-10-31T07:36:39;26.13;;;17.63;;
7045;SDS011;3564;53.326;10.356;2022-10-31T07:39:04;27.60;;;17.20;;
7045;SDS011;3564;53.326;10.356;2022-10-31T07:41:31;26.10;;;17.80;;
7045;SDS011;3564;53.326;10.356;2022-10-31T07:43:56;28.70;;;17.87;;
7045;SDS011;3564;53.326;10.356;2022-10-31T07:46:22;28.07;;;17.63;;
7045;SDS011;3564;53.326;10.356;2022-10-31T07:48:47;29.50;;;18.13;;
7045;SDS011;3564;53.326;10.356;2022-10-31T07:51:13;29.97;;;17.73;;
7045;SDS011;3564;53.326;10.356;2022-10-31T07:53:38;29.43;;;17.87;;
7045;SDS011;3564;53.326;10.356;2022-10-31T07:56:04;26.37;;;16.97;;
7045;SDS011;3564;53.326;10.356;2022-10-31T07:58:30;28.43;;;16.83;;
7045;SDS011;3564;53.326;10.356;2022-10-31T08:00:57;23.73;;;15.67;;
7045;SDS011;3564;53.326;10.356;2022-10-31T08:03:23;26.87;;;17.90;;
7045;SDS011;3564;53.326;10.356;2022-10-31T08:05:51;24.27;;;15.63;;
7045;SDS011;3564;53.326;10.356;2022-10-31T08:08:18;24.87;;;15.27;;
7045;SDS011;3564;53.326;10.356;2022-10-31T08:10:44;27.17;;;16.13;;
7045;SDS011;3564;53.326;10.356;2022-10-31T08:13:11;25.97;;;16.43;;
7045;SDS011;3564;53.326;10.356;2022-10-31T08:15:37;26.67;;;16.60;;
7045;SDS011;3564;53.326;10.356;2022-10-31T08:18:06;26.57;;;15.10;;
7045;SDS011;3564;53.326;10.356;2022-10-31T08:20:39;28.50;;;16.07;;
7045;SDS011;3564;53.326;10.356;2022-10-31T08:23:05;29.70;;;16.97;;
7045;SDS011;3564;53.326;10.356;2022-10-31T08:25:31;24.20;;;15.40;;
7045;SDS011;3564;53.326;10.356;2022-10-31T08:27:58;27.97;;;15.90;;
7045;SDS011;3564;53.326;10.356;2022-10-31T08:30:25;24.00;;;15.33;;
7045;SDS011;3564;53.326;10.356;2022-10-31T08:35:29;27.13;;;15.50;;
7045;SDS011;3564;53.326;10.356;2022-10-31T08:37:55;25.97;;;15.77;;
7045;SDS011;3564;53.326;10.356;2022-10-31T08:40:22;29.97;;;16.80;;
7045;SDS011;3564;53.326;10.356;2022-10-31T08:42:55;28.03;;;16.90;;
7045;SDS011;3564;53.326;10.356;2022-10-31T08:45:24;27.63;;;16.10;;
7045;SDS011;3564;53.326;10.356;2022-10-31T08:47:50;32.10;;;16.70;;
7045;SDS011;3564;53.326;10.356;2022-10-31T08:50:16;26.60;;;16.83;;
7045;SDS011;3564;53.326;10.356;2022-10-31T08:52:42;24.93;;;15.37;;
7045;SDS011;3564;53.326;10.356;2022-10-31T08:55:07;26.97;;;15.93;;
7045;SDS011;3564;53.326;10.356;2022-10-31T08:57:33;25.07;;;15.10;;
7045;SDS011;3564;53.326;10.356;2022-10-31T08:59:59;24.03;;;13.97;;
7045;SDS011;3564;53.326;10.356;2022-10-31T09:02:24;27.60;;;14.43;;
7045;SDS011;3564;53.326;10.356;2022-10-31T09:04:50;24.67;;;13.97;;
7045;SDS011;3564;53.326;10.356;2022-10-31T09:07:15;27.93;;;15.33;;
7045;SDS011;3564;53.326;10.356;2022-10-31T09:09:44;26.77;;;15.17;;
7045;SDS011;3564;53.326;10.356;2022-10-31T09:12:09;27.67;;;16.33;;
7045;SDS011;3564;53.326;10.356;2022-10-31T09:14:35;26.70;;;16.20;;
7045;SDS011;3564;53.326;10.356;2022-10-31T09:17:01;27.13;;;17.00;;
7045;SDS011;3564;53.326;10.356;2022-10-31T09:19:26;27.80;;;15.77;;
7045;SDS011;3564;53.326;10.356;2022-10-31T09:21:53;21.57;;;13.97;;
7045;SDS011;3564;53.326;10.356;2022-10-31T09:24:19;28.83;;;15.77;;
7045;SDS011;3564;53.326;10.356;2022-10-31T09:26:45;29.67;;;16.40;;
7045;SDS011;3564;53.326;10.356;2022-10-31T09:29:10;24.00;;;14.83;;
7045;SDS011;3564;53.326;10.356;2022-10-31T09:31:36;23.93;;;15.40;;
7045;SDS011;3564;53.326;10.356;2022-10-31T09:34:01;28.00;;;16.47;;
7045;SDS011;3564;53.326;10.356;2022-10-31T09:36:27;26.10;;;14.23;;
7045;SDS011;3564;53.326;10.356;2022-10-31T09:38:52;25.10;;;14.17;;
7045;SDS011;3564;53.326;10.356;2022-10-31T09:52:10;24.17;;;13.77;;
7045;SDS011;3564;53.326;10.356;2022-10-31T09:54:46;25.93;;;16.47;;
7045;SDS011;3564;53.326;10.356;2022-10-31T09:57:19;23.00;;;14.03;;
7045;SDS011;3564;53.326;10.356;2022-10-31T10:00:10;26.30;;;15.83;;
7045;SDS011;3564;53.326;10.356;2022-10-31T10:05:38;30.80;;;17.53;;
7045;SDS011;3564;53.326;10.356;2022-10-31T10:08:21;23.47;;;15.70;;
7045;SDS011;3564;53.326;10.356;2022-10-31T10:10:54;20.47;;;13.50;;
7045;SDS011;3564;53.326;10.356;2022-10-31T10:24:33;18.93;;;13.00;;
7045;SDS011;3564;53.326;10.356;2022-10-31T10:27:18;19.67;;;11.83;;
7045;SDS011;3564;53.326;10.356;2022-10-31T10:29:58;21.73;;;13.87;;
7045;SDS011;3564;53.326;10.356;2022-10-31T10:33:12;20.70;;;13.53;;
7045;SDS011;3564;53.326;10.356;2022-10-31T10:35:39;20.73;;;13.77;;
7045;SDS011;3564;53.326;10.356;2022-10-31T10:38:13;22.00;;;12.57;;
7045;SDS011;3564;53.326;10.356;2022-10-31T10:40:56;19.53;;;12.60;;
7045;SDS011;3564;53.326;10.356;2022-10-31T10:43:36;17.90;;;11.80;;
7045;SDS011;3564;53.326;10.356;2022-10-31T10:46:12;14.17;;;10.10;;
7045;SDS011;3564;53.326;10.356;2022-10-31T10:49:12;16.57;;;10.23;;
7045;SDS011;3564;53.326;10.356;2022-10-31T10:51:47;17.37;;;11.80;;
7045;SDS011;3564;53.326;10.356;2022-10-31T11:00:01;16.40;;;11.47;;
7045;SDS011;3564;53.326;10.356;2022-10-31T11:02:36;16.43;;;9.50;;
7045;SDS011;3564;53.326;10.356;2022-10-31T11:05:02;15.80;;;10.23;;
7045;SDS011;3564;53.326;10.356;2022-10-31T11:07:38;16.07;;;10.70;;
7045;SDS011;3564;53.326;10.356;2022-10-31T11:10:05;16.47;;;11.43;;
7045;SDS011;3564;53.326;10.356;2022-10-31T11:12:39;19.60;;;11.43;;
7045;SDS011;3564;53.326;10.356;2022-10-31T11:15:07;16.63;;;11.20;;
7045;SDS011;3564;53.326;10.356;2022-10-31T11:17:48;16.57;;;10.37;;
7045;SDS011;3564;53.326;10.356;2022-10-31T11:22:43;16.97;;;10.97;;
7045;SDS011;3564;53.326;10.356;2022-10-31T11:27:58;15.63;;;10.67;;
7045;SDS011;3564;53.326;10.356;2022-10-31T11:30:25;21.00;;;13.20;;
7045;SDS011;3564;53.326;10.356;2022-10-31T11:32:51;18.13;;;10.63;;
7045;SDS011;3564;53.326;10.356;2022-10-31T11:35:20;15.80;;;10.60;;
7045;SDS011;3564;53.326;10.356;2022-10-31T11:37:49;13.17;;;9.57;;
7045;SDS011;3564;53.326;10.356;2022-10-31T11:40:18;16.87;;;9.80;;
7045;SDS011;3564;53.326;10.356;2022-10-31T11:42:49;28.83;;;18.60;;
7045;SDS011;3564;53.326;10.356;2022-10-31T11:47:52;16.60;;;12.37;;
7045;SDS011;3564;53.326;10.356;2022-10-31T11:50:21;15.07;;;10.60;;
7045;SDS011;3564;53.326;10.356;2022-10-31T11:52:51;15.63;;;10.43;;
7045;SDS011;3564;53.326;10.356;2022-10-31T11:55:34;18.93;;;9.70;;
7045;SDS011;3564;53.326;10.356;2022-10-31T11:58:02;14.37;;;9.60;;
7045;SDS011;3564;53.326;10.356;2022-10-31T12:00:30;15.83;;;9.00;;
7045;SDS011;3564;53.326;10.356;2022-10-31T12:05:47;12.17;;;8.83;;
7045;SDS011;3564;53.326;10.356;2022-10-31T12:08:24;15.23;;;10.37;;
7045;SDS011;3564;53.326;10.356;2022-10-31T12:42:44;14.77;;;10.33;;
7045;SDS011;3564;53.326;10.356;2022-10-31T12:59:32;15.20;;;9.93;;
7045;SDS011;3564;53.326;10.356;2022-10-31T13:04:54;15.90;;;10.13;;
7045;SDS011;3564;53.326;10.356;2022-10-31T13:07:36;14.70;;;10.63;;
7045;SDS011;3564;53.326;10.356;2022-10-31T13:12:37;20.13;;;12.30;;
7045;SDS011;3564;53.326;10.356;2022-10-31T13:15:05;21.40;;;15.50;;
7045;SDS011;3564;53.326;10.356;2022-10-31T13:17:45;22.67;;;16.50;;
7045;SDS011;3564;53.326;10.356;2022-10-31T13:20:32;11.70;;;8.47;;
7045;SDS011;3564;53.326;10.356;2022-10-31T13:25:55;19.07;;;13.00;;
7045;SDS011;3564;53.326;10.356;2022-10-31T13:28:25;16.37;;;10.63;;
7045;SDS011;3564;53.326;10.356;2022-10-31T13:30:58;17.50;;;10.17;;
7045;SDS011;3564;53.326;10.356;2022-10-31T13:33:26;16.47;;;10.47;;
7045;SDS011;3564;53.326;10.356;2022-10-31T13:38:46;15.03;;;9.50;;
7045;SDS011;3564;53.326;10.356;2022-10-31T13:41:27;14.60;;;9.40;;
7045;SDS011;3564;53.326;10.356;2022-10-31T13:44:21;15.77;;;10.10;;
7045;SDS011;3564;53.326;10.356;2022-10-31T13:46:52;16.60;;;10.40;;
7045;SDS011;3564;53.326;10.356;2022-10-31T13:49:36;16.93;;;10.30;;
7045;SDS011;3564;53.326;10.356;2022-10-31T13:54:38;17.90;;;11.90;;
7045;SDS011;3564;53.326;10.356;2022-10-31T13:57:20;17.80;;;11.40;;
7045;SDS011;3564;53.326;10.356;2022-10-31T13:59:53;19.63;;;11.13;;
7045;SDS011;3564;53.326;10.356;2022-10-31T14:02:24;15.17;;;10.50;;
7045;SDS011;3564;53.326;10.356;2022-10-31T14:04:55;19.83;;;11.33;;
7045;SDS011;3564;53.326;10.356;2022-10-31T14:07:24;14.03;;;8.87;;
7045;SDS011;3564;53.326;10.356;2022-10-31T14:10:04;15.93;;;10.10;;
7045;SDS011;3564;53.326;10.356;2022-10-31T14:12:49;17.17;;;11.33;;
7045;SDS011;3564;53.326;10.356;2022-10-31T14:15:19;18.10;;;11.67;;
7045;SDS011;3564;53.326;10.356;2022-10-31T14:17:52;18.60;;;10.93;;
7045;SDS011;3564;53.326;10.356;2022-10-31T14:20:40;24.70;;;12.93;;
7045;SDS011;3564;53.326;10.356;2022-10-31T14:26:05;17.97;;;11.00;;
7045;SDS011;3564;53.326;10.356;2022-10-31T14:28:32;17.93;;;10.73;;
7045;SDS011;3564;53.326;10.356;2022-10-31T14:31:00;15.40;;;9.70;;
7045;SDS011;3564;53.326;10.356;2022-10-31T14:33:26;14.27;;;10.03;;
7045;SDS011;3564;53.326;10.356;2022-10-31T14:38:29;23.70;;;15.87;;
7045;SDS011;3564;53.326;10.356;2022-10-31T14:41:48;25.90;;;16.70;;
7045;SDS011;3564;53.326;10.356;2022-10-31T14:50:54;11.40;;;8.50;;
7045;SDS011;3564;53.326;10.356;2022-10-31T14:53:24;10.90;;;6.87;;
7045;SDS011;3564;53.326;10.356;2022-10-31T14:55:58;10.20;;;6.73;;
7045;SDS011;3564;53.326;10.356;2022-10-31T15:03:53;9.00;;;5.00;;
7045;SDS011;3564;53.326;10.356;2022-10-31T15:06:23;6.20;;;4.97;;
7045;SDS011;3564;53.326;10.356;2022-10-31T15:08:51;8.50;;;4.97;;
7045;SDS011;3564;53.326;10.356;2022-10-31T15:11:21;7.83;;;5.27;;
7045;SDS011;3564;53.326;10.356;2022-10-31T15:13:49;9.07;;;5.43;;
7045;SDS011;3564;53.326;10.356;2022-10-31T15:16:18;8.23;;;5.07;;
7045;SDS011;3564;53.326;10.356;2022-10-31T15:18:48;8.97;;;5.17;;
7045;SDS011;3564;53.326;10.356;2022-10-31T15:21:18;10.10;;;5.27;;
7045;SDS011;3564;53.326;10.356;2022-10-31T15:23:45;7.93;;;5.27;;
7045;SDS011;3564;53.326;10.356;2022-10-31T15:26:17;9.43;;;5.20;;
7045;SDS011;3564;53.326;10.356;2022-10-31T15:28:45;9.93;;;6.00;;
7045;SDS011;3564;53.326;10.356;2022-10-31T15:31:15;8.90;;;5.83;;
7045;SDS011;3564;53.326;10.356;2022-10-31T15:33:46;12.50;;;7.50;;
7045;SDS011;3564;53.326;10.356;2022-10-31T15:36:18;15.17;;;12.03;;
7045;SDS011;3564;53.326;10.356;2022-10-31T15:38:51;25.40;;;17.70;;
7045;SDS011;3564;53.326;10.356;2022-10-31T15:41:37;26.33;;;17.50;;
7045;SDS011;3564;53.326;10.356;2022-10-31T15:44:18;18.33;;;12.07;;
7045;SDS011;3564;53.326;10.356;2022-10-31T15:49:55;44.60;;;28.70;;
7045;SDS011;3564;53.326;10.356;2022-10-31T15:52:39;47.40;;;29.83;;
7045;SDS011;3564;53.326;10.356;2022-10-31T15:57:41;56.73;;;35.53;;
7045;SDS011;3564;53.326;10.356;2022-10-31T16:00:22;26.67;;;18.90;;
7045;SDS011;3564;53.326;10.356;2022-10-31T16:03:00;16.87;;;12.67;;
7045;SDS011;3564;53.326;10.356;2022-10-31T16:05:34;26.23;;;17.80;;
7045;SDS011;3564;53.326;10.356;2022-10-31T16:10:55;20.30;;;14.77;;
7045;SDS011;3564;53.326;10.356;2022-10-31T16:13:26;18.73;;;13.93;;
7045;SDS011;3564;53.326;10.356;2022-10-31T16:15:57;20.83;;;14.40;;
7045;SDS011;3564;53.326;10.356;2022-10-31T16:18:28;18.27;;;14.43;;
7045;SDS011;3564;53.326;10.356;2022-10-31T16:20:59;30.70;;;22.03;;
7045;SDS011;3564;53.326;10.356;2022-10-31T16:23:25;26.03;;;19.83;;
7045;SDS011;3564;53.326;10.356;2022-10-31T16:25:52;21.20;;;16.70;;
7045;SDS011;3564;53.326;10.356;2022-10-31T16:28:22;18.53;;;14.23;;
7045;SDS011;3564;53.326;10.356;2022-10-31T16:30:53;18.23;;;14.33;;
7045;SDS011;3564;53.326;10.356;2022-10-31T16:33:35;17.93;;;14.37;;
7045;SDS011;3564;53.326;10.356;2022-10-31T16:38:57;18.07;;;12.93;;
7045;SDS011;3564;53.326;10.356;2022-10-31T16:41:23;16.37;;;12.70;;
7045;SDS011;3564;53.326;10.356;2022-10-31T16:43:50;17.40;;;12.77;;
7045;SDS011;3564;53.326;10.356;2022-10-31T16:46:22;17.20;;;12.03;;
7045;SDS011;3564;53.326;10.356;2022-10-31T16:48:49;15.93;;;12.53;;
7045;SDS011;3564;53.326;10.356;2022-10-31T16:51:15;16.57;;;11.40;;
7045;SDS011;3564;53.326;10.356;2022-10-31T16:53:40;20.03;;;11.87;;
7045;SDS011;3564;53.326;10.356;2022-10-31T16:56:06;16.90;;;11.00;;
7045;SDS011;3564;53.326;10.356;2022-10-31T16:58:45;18.37;;;12.07;;
7045;SDS011;3564;53.326;10.356;2022-10-31T17:01:11;21.57;;;12.30;;
7045;SDS011;3564;53.326;10.356;2022-10-31T17:03:37;18.47;;;12.43;;
7045;SDS011;3564;53.326;10.356;2022-10-31T17:06:04;18.23;;;11.97;;
7045;SDS011;3564;53.326;10.356;2022-10-31T17:08:29;20.20;;;13.63;;
7045;SDS011;3564;53.326;10.356;2022-10-31T17:10:55;18.20;;;13.10;;
7045;SDS011;3564;53.326;10.356;2022-10-31T17:13:23;19.13;;;12.90;;
7045;SDS011;3564;53.326;10.356;2022-10-31T17:15:57;17.83;;;12.13;;
7045;SDS011;3564;53.326;10.356;2022-10-31T17:18:24;20.37;;;12.27;;
7045;SDS011;3564;53.326;10.356;2022-10-31T17:20:50;20.57;;;12.27;;
7045;SDS011;3564;53.326;10.356;2022-10-31T17:23:24;18.47;;;13.30;;
7045;SDS011;3564;53.326;10.356;2022-10-31T17:25:49;17.83;;;12.13;;
7045;SDS011;3564;53.326;10.356;2022-10-31T17:28:15;17.83;;;12.00;;
7045;SDS011;3564;53.326;10.356;2022-10-31T17:30:41;31.37;;;21.47;;
7045;SDS011;3564;53.326;10.356;2022-10-31T17:33:14;25.30;;;17.93;;
7045;SDS011;3564;53.326;10.356;2022-10-31T17:35:41;19.07;;;13.73;;
7045;SDS011;3564;53.326;10.356;2022-10-31T17:38:08;20.17;;;14.20;;
7045;SDS011;3564;53.326;10.356;2022-10-31T17:40:35;20.13;;;14.27;;
7045;SDS011;3564;53.326;10.356;2022-10-31T17:43:02;27.03;;;17.63;;
7045;SDS011;3564;53.326;10.356;2022-10-31T17:45:28;24.93;;;14.70;;
7045;SDS011;3564;53.326;10.356;2022-10-31T17:47:53;25.07;;;15.53;;
7045;SDS011;3564;53.326;10.356;2022-10-31T17:50:20;22.33;;;14.77;;